createdAt,value
2024-03-02T00:00:21.593Z,8
2024-03-02T00:02:22.461Z,8
2024-03-02T00:04:23.422Z,7
2024-03-02T00:06:25.400Z,7
2024-03-02T00:08:25.508Z,7
2024-03-02T00:10:26.457Z,7
2024-03-02T00:12:27.451Z,7
2024-03-02T00:14:28.610Z,7
2024-03-02T00:16:29.737Z,7
2024-03-02T00:18:30.586Z,7
2024-03-02T00:20:31.837Z,7
2024-03-02T00:22:32.485Z,7
2024-03-02T00:24:33.784Z,7
2024-03-02T00:26:34.432Z,7
2024-03-02T00:28:36.445Z,7
2024-03-02T00:30:36.472Z,7
2024-03-02T00:32:37.457Z,7
2024-03-02T00:34:38.470Z,7
2024-03-02T00:36:39.484Z,7
2024-03-02T00:38:40.448Z,7
2024-03-02T00:40:41.428Z,7
2024-03-02T00:42:42.448Z,7
2024-03-02T00:44:43.521Z,7
2024-03-02T00:46:44.475Z,7
2024-03-02T00:48:45.519Z,7
2024-03-02T00:50:46.479Z,7
2024-03-02T00:52:47.365Z,7
2024-03-02T00:54:48.520Z,7
2024-03-02T00:56:49.427Z,7
2024-03-02T00:58:50.477Z,7
2024-03-02T01:00:51.580Z,7
2024-03-02T01:02:52.491Z,7
2024-03-02T01:04:53.464Z,7
2024-03-02T01:06:54.622Z,7
2024-03-02T01:08:55.471Z,7
2024-03-02T01:10:56.500Z,7
2024-03-02T01:12:57.513Z,7
2024-03-02T01:14:58.498Z,7
2024-03-02T01:16:59.708Z,7
2024-03-02T01:19:00.725Z,7
2024-03-02T01:21:01.399Z,7
2024-03-02T01:23:02.441Z,7
2024-03-02T01:25:03.512Z,7
2024-03-02T01:27:04.371Z,7
2024-03-02T01:29:05.361Z,8
2024-03-02T01:31:06.470Z,8
2024-03-02T01:33:07.532Z,8
2024-03-02T01:35:08.423Z,8
2024-03-02T01:37:09.389Z,8
2024-03-02T01:39:10.489Z,8
2024-03-02T01:41:11.470Z,8
2024-03-02T01:43:12.394Z,8
2024-03-02T01:45:13.582Z,8
2024-03-02T01:47:14.442Z,8
2024-03-02T01:49:15.428Z,8
2024-03-02T01:51:16.495Z,8
2024-03-02T01:53:17.429Z,8
2024-03-02T01:55:18.312Z,8
2024-03-02T01:57:19.483Z,8
2024-03-02T01:59:20.847Z,8
2024-03-02T02:01:21.496Z,8
2024-03-02T02:03:22.423Z,8
2024-03-02T02:05:23.577Z,8
2024-03-02T02:07:24.439Z,8
2024-03-02T02:09:25.385Z,8
2024-03-02T02:11:26.663Z,8
2024-03-02T02:13:27.428Z,8
2024-03-02T02:15:28.710Z,8
2024-03-02T02:17:29.522Z,8
2024-03-02T02:19:30.359Z,8
2024-03-02T02:21:31.386Z,8
2024-03-02T02:23:32.425Z,8
2024-03-02T02:25:33.429Z,8
2024-03-02T02:27:34.643Z,8
2024-03-02T02:29:35.402Z,8
2024-03-02T02:31:36.370Z,8
2024-03-02T02:33:37.493Z,8
2024-03-02T02:35:38.446Z,8
2024-03-02T02:37:39.474Z,8
2024-03-02T02:39:40.453Z,8
2024-03-02T02:41:41.428Z,8
2024-03-02T02:43:42.376Z,8
2024-03-02T02:45:43.433Z,8
2024-03-02T02:47:44.797Z,8
2024-03-02T02:49:45.466Z,8
2024-03-02T02:51:46.448Z,8
2024-03-02T02:53:47.369Z,8
2024-03-02T02:55:48.444Z,8
2024-03-02T02:57:49.562Z,8
2024-03-02T02:59:50.428Z,8
2024-03-02T03:01:51.463Z,8
2024-03-02T03:03:52.509Z,8
2024-03-02T03:05:53.433Z,8
2024-03-02T03:07:54.333Z,8
2024-03-02T03:09:55.463Z,8
2024-03-02T03:11:56.673Z,8
2024-03-02T03:13:57.492Z,8
2024-03-02T03:15:58.636Z,8
2024-03-02T03:17:59.724Z,8
2024-03-02T03:20:00.504Z,8
2024-03-02T03:22:01.431Z,8
2024-03-02T03:24:02.348Z,8
2024-03-02T03:26:03.434Z,8
2024-03-02T03:28:04.659Z,8
2024-03-02T03:30:05.405Z,8
2024-03-02T03:32:06.479Z,8
2024-03-02T03:34:07.477Z,8
2024-03-02T03:36:08.448Z,8
2024-03-02T03:38:09.486Z,8
2024-03-02T03:40:10.358Z,8
2024-03-02T03:42:11.359Z,8
2024-03-02T03:44:12.500Z,8
2024-03-02T03:46:13.364Z,8
2024-03-02T03:48:14.975Z,8
2024-03-02T03:50:15.380Z,8
2024-03-02T03:52:16.345Z,8
2024-03-02T03:54:17.404Z,8
2024-03-02T03:56:18.420Z,8
2024-03-02T03:58:23.186Z,8
2024-03-02T04:00:20.612Z,8
2024-03-02T04:02:21.393Z,8
2024-03-02T04:04:22.421Z,8
2024-03-02T04:06:23.462Z,8
2024-03-02T04:08:24.416Z,8
2024-03-02T04:10:25.869Z,8
2024-03-02T04:12:26.361Z,8
2024-03-02T04:14:27.613Z,8
2024-03-02T04:16:28.349Z,8
2024-03-02T04:18:29.459Z,8
2024-03-02T04:20:30.400Z,8
2024-03-02T04:22:31.439Z,8
2024-03-02T04:24:32.443Z,8
2024-03-02T04:26:33.286Z,8
2024-03-02T04:28:34.348Z,8
2024-03-02T04:30:35.478Z,8
2024-03-02T04:32:36.459Z,8
2024-03-02T04:34:37.484Z,8
2024-03-02T04:36:38.487Z,7
2024-03-02T04:38:39.489Z,7
2024-03-02T04:40:40.359Z,7
2024-03-02T04:42:41.519Z,7
2024-03-02T04:44:42.421Z,7
2024-03-02T04:46:43.325Z,7
2024-03-02T04:48:44.879Z,7
2024-03-02T04:50:45.346Z,7
2024-03-02T04:52:46.373Z,7
2024-03-02T04:54:47.539Z,7
2024-03-02T04:56:48.359Z,7
2024-03-02T04:58:49.423Z,7
2024-03-02T05:00:50.715Z,7
2024-03-02T05:02:51.319Z,7
2024-03-02T05:04:52.514Z,7
2024-03-02T05:06:53.751Z,7
2024-03-02T05:08:54.443Z,7
2024-03-02T05:10:55.473Z,7
2024-03-02T05:12:56.517Z,7
2024-03-02T05:14:57.397Z,7
2024-03-02T05:16:58.412Z,7
2024-03-02T05:18:59.464Z,8
2024-03-02T05:21:00.402Z,8
2024-03-02T05:23:01.378Z,8
2024-03-02T05:25:02.712Z,8
2024-03-02T05:27:03.436Z,8
2024-03-02T05:29:04.367Z,8
2024-03-02T05:31:05.486Z,8
2024-03-02T05:33:06.457Z,8
2024-03-02T05:35:07.342Z,8
2024-03-02T05:37:08.408Z,8
2024-03-02T05:39:09.613Z,8
2024-03-02T05:41:10.382Z,8
2024-03-02T05:43:11.378Z,8
2024-03-02T05:45:12.477Z,8
2024-03-02T05:47:13.368Z,8
2024-03-02T05:49:14.572Z,8
2024-03-02T05:51:15.340Z,8
2024-03-02T05:53:16.376Z,8
2024-03-02T05:55:17.373Z,8
2024-03-02T05:57:18.828Z,8
2024-03-02T05:59:19.333Z,8
2024-03-02T06:01:20.612Z,8
2024-03-02T06:03:21.442Z,8
2024-03-02T06:05:22.408Z,8
2024-03-02T06:07:23.452Z,8
2024-03-02T06:09:24.386Z,8
2024-03-02T06:11:25.512Z,8
2024-03-02T06:13:26.358Z,8
2024-03-02T06:15:27.389Z,8
2024-03-02T06:17:28.530Z,8
2024-03-02T06:19:29.371Z,8
2024-03-02T06:21:30.608Z,8
2024-03-02T06:23:31.354Z,8
2024-03-02T06:25:32.389Z,8
2024-03-02T06:27:33.375Z,8
2024-03-02T06:29:34.389Z,8
2024-03-02T06:31:35.369Z,8
2024-03-02T06:33:36.768Z,8
2024-03-02T06:35:37.383Z,8
2024-03-02T06:37:38.451Z,8
2024-03-02T06:39:39.528Z,8
2024-03-02T06:41:40.413Z,8
2024-03-02T06:43:41.332Z,8
2024-03-02T06:45:42.438Z,8
2024-03-02T06:47:43.506Z,8
2024-03-02T06:49:44.323Z,8
2024-03-02T06:51:45.508Z,8
2024-03-02T06:53:46.286Z,8
2024-03-02T06:55:47.341Z,8
2024-03-02T06:57:48.432Z,8
2024-03-02T06:59:49.262Z,8
2024-03-02T07:01:50.388Z,8
2024-03-02T07:03:51.449Z,8
2024-03-02T07:05:52.266Z,8
2024-03-02T07:07:53.289Z,8
2024-03-02T07:09:54.437Z,8
2024-03-02T07:11:55.403Z,8
2024-03-02T07:13:56.295Z,8
2024-03-02T07:15:57.390Z,8
2024-03-02T07:17:58.403Z,8
2024-03-02T07:19:59.661Z,8
2024-03-02T07:22:00.502Z,8
2024-03-02T07:24:01.329Z,8
2024-03-02T07:28:03.351Z,8
2024-03-02T07:30:04.389Z,8
2024-03-02T07:32:05.431Z,8
2024-03-02T07:34:06.431Z,8
2024-03-02T07:36:07.345Z,8
2024-03-02T07:38:08.516Z,8
2024-03-02T07:40:09.391Z,8
2024-03-02T07:42:10.321Z,8
2024-03-02T07:44:11.484Z,8
2024-03-02T07:46:12.329Z,8
2024-03-02T07:48:13.273Z,8
2024-03-02T07:50:14.322Z,8
2024-03-02T07:52:15.364Z,8
2024-03-02T07:54:16.280Z,8
2024-03-02T07:56:17.369Z,8
2024-03-02T07:58:18.259Z,8
2024-03-02T08:00:19.411Z,8
2024-03-02T08:02:20.401Z,8
2024-03-02T08:04:21.298Z,8
2024-03-02T08:06:22.683Z,8
2024-03-02T08:08:23.316Z,8
2024-03-02T08:10:24.291Z,8
2024-03-02T08:12:25.421Z,8
2024-03-02T08:14:26.268Z,8
2024-03-02T08:16:27.308Z,8
2024-03-02T08:18:28.418Z,8
2024-03-02T08:20:29.717Z,8
2024-03-02T08:22:30.297Z,8
2024-03-02T08:24:31.755Z,8
2024-03-02T08:26:32.340Z,8
2024-03-02T08:28:33.388Z,8
2024-03-02T08:30:34.424Z,8
2024-03-02T08:32:35.887Z,8
2024-03-02T08:34:36.329Z,9
2024-03-02T08:36:37.426Z,9
2024-03-02T08:38:38.225Z,9
2024-03-02T08:40:39.257Z,9
2024-03-02T08:42:40.545Z,9
2024-03-02T08:44:41.394Z,9
2024-03-02T08:46:42.319Z,9
2024-03-02T08:48:43.419Z,9
2024-03-02T08:50:44.262Z,9
2024-03-02T08:52:45.297Z,9
2024-03-02T08:54:46.415Z,9
2024-03-02T08:56:47.260Z,9
2024-03-02T08:58:48.301Z,9
2024-03-02T09:00:49.632Z,9
2024-03-02T09:02:50.323Z,9
2024-03-02T09:04:51.342Z,9
2024-03-02T09:06:52.493Z,9
2024-03-02T09:08:53.285Z,10
2024-03-02T09:10:54.382Z,10
2024-03-02T09:12:56.417Z,10
2024-03-02T09:14:56.258Z,10
2024-03-02T09:16:57.299Z,10
2024-03-02T09:18:58.293Z,10
2024-03-02T09:20:59.333Z,11
2024-03-02T09:23:00.356Z,11
2024-03-02T09:25:01.546Z,11
2024-03-02T09:27:02.598Z,11
2024-03-02T09:29:03.281Z,12
2024-03-02T09:31:04.387Z,12
2024-03-02T09:35:06.382Z,12
2024-03-02T09:37:07.401Z,12
2024-03-02T09:39:08.305Z,12
2024-03-02T09:41:09.283Z,12
2024-03-02T09:43:10.340Z,12
2024-03-02T09:45:11.557Z,12
2024-03-02T09:47:12.295Z,12
2024-03-02T09:49:13.439Z,12
2024-03-02T09:51:14.247Z,12
2024-03-02T09:53:15.312Z,12
2024-03-02T09:55:16.258Z,12
2024-03-02T09:57:17.259Z,12
2024-03-02T09:59:18.261Z,12
2024-03-02T10:01:19.491Z,12
2024-03-02T10:03:20.387Z,12
2024-03-02T10:05:21.194Z,12
2024-03-02T10:07:22.301Z,12
2024-03-02T10:09:23.233Z,12
2024-03-02T10:11:24.372Z,12
2024-03-02T10:13:25.438Z,12
2024-03-02T10:15:26.453Z,12
2024-03-02T10:17:27.275Z,12
2024-03-02T10:19:28.265Z,12
2024-03-02T10:21:29.338Z,12
2024-03-02T10:23:30.466Z,12
2024-03-02T10:25:47.142Z,13
2024-03-02T10:27:32.341Z,13
2024-03-02T10:29:33.370Z,13
2024-03-02T10:31:34.326Z,14
2024-03-02T10:33:35.359Z,14
2024-03-02T10:35:36.282Z,14
2024-03-02T10:37:37.251Z,15
2024-03-02T10:39:38.297Z,15
2024-03-02T10:41:39.309Z,15
2024-03-02T10:43:40.201Z,15
2024-03-02T10:45:41.248Z,16
2024-03-02T10:47:42.325Z,17
2024-03-02T10:49:43.306Z,18
2024-03-02T10:51:44.454Z,20
2024-03-02T10:53:45.201Z,20
2024-03-02T10:55:46.485Z,20
2024-03-02T10:57:47.378Z,20
2024-03-02T10:59:48.305Z,20
2024-03-02T11:01:49.424Z,20
2024-03-02T11:03:50.329Z,20
2024-03-02T11:05:51.181Z,19
2024-03-02T11:07:52.236Z,19
2024-03-02T11:09:53.283Z,19
2024-03-02T11:11:54.238Z,19
2024-03-02T11:13:55.239Z,19
2024-03-02T11:15:56.225Z,19
2024-03-02T11:17:57.186Z,19
2024-03-02T11:19:58.182Z,20
2024-03-02T11:21:59.415Z,20
2024-03-02T11:24:00.276Z,20
2024-03-02T11:26:01.204Z,21
2024-03-02T11:28:02.889Z,21
2024-03-02T11:30:03.222Z,21
2024-03-02T11:32:04.190Z,21
2024-03-02T11:34:05.272Z,21
2024-03-02T11:36:09.839Z,21
2024-03-02T11:38:07.307Z,21
2024-03-02T11:40:08.414Z,20
2024-03-02T11:42:09.138Z,20
2024-03-02T11:44:10.184Z,20
2024-03-02T11:46:12.020Z,19
2024-03-02T11:48:12.219Z,19
2024-03-02T11:50:13.183Z,18
2024-03-02T11:52:14.187Z,17
2024-03-02T11:54:15.174Z,16
2024-03-02T11:56:16.148Z,16
2024-03-02T11:58:17.205Z,16
2024-03-02T12:00:18.206Z,15
2024-03-02T12:02:19.263Z,15
2024-03-02T12:04:20.137Z,15
2024-03-02T12:06:21.450Z,15
2024-03-02T12:08:22.658Z,14
2024-03-02T12:10:23.322Z,14
2024-03-02T12:12:24.259Z,14
2024-03-02T12:14:25.630Z,14
2024-03-02T12:16:26.162Z,14
2024-03-02T12:18:27.980Z,14
2024-03-02T12:20:28.143Z,15
2024-03-02T12:22:29.217Z,15
2024-03-02T12:24:30.208Z,15
2024-03-02T12:26:31.226Z,15
2024-03-02T12:28:34.433Z,15
2024-03-02T12:30:33.676Z,15
2024-03-02T12:32:34.175Z,14
2024-03-02T12:34:35.356Z,14
2024-03-02T12:36:36.157Z,14
2024-03-02T12:38:37.218Z,14
2024-03-02T12:40:38.176Z,14
2024-03-02T12:42:39.281Z,13
2024-03-02T12:44:40.226Z,13
2024-03-02T12:46:41.179Z,13
2024-03-02T12:48:42.473Z,13
2024-03-02T12:50:43.214Z,13
2024-03-02T12:52:44.198Z,13
2024-03-02T12:54:45.206Z,13
2024-03-02T12:56:46.109Z,13
2024-03-02T12:58:47.094Z,13
2024-03-02T13:00:48.372Z,13
2024-03-02T13:02:49.167Z,13
2024-03-02T13:04:50.189Z,13
2024-03-02T13:06:51.218Z,14
2024-03-02T13:08:52.145Z,14
2024-03-02T13:10:53.200Z,14
2024-03-02T13:12:54.173Z,14
2024-03-02T13:14:55.148Z,15
2024-03-02T13:16:56.154Z,15
2024-03-02T13:18:57.319Z,15
2024-03-02T13:20:58.182Z,16
2024-03-02T13:22:59.577Z,16
2024-03-02T13:25:00.298Z,16
2024-03-02T13:27:01.237Z,17
2024-03-02T13:29:02.099Z,17
2024-03-02T13:31:03.752Z,17
2024-03-02T13:33:04.375Z,17
2024-03-02T13:35:05.052Z,17
2024-03-02T13:37:06.513Z,17
2024-03-02T13:39:07.486Z,16
2024-03-02T13:41:08.174Z,16
2024-03-02T13:43:09.291Z,16
2024-03-02T13:45:10.117Z,16
2024-03-02T13:47:11.327Z,16
2024-03-02T13:49:12.053Z,16
2024-03-02T13:53:14.159Z,16
2024-03-02T13:55:15.362Z,16
2024-03-02T13:57:16.139Z,15
2024-03-02T13:59:17.052Z,15
2024-03-02T14:01:18.261Z,15
2024-03-02T14:03:19.149Z,15
2024-03-02T14:05:20.197Z,15
2024-03-02T14:07:21.085Z,15
2024-03-02T14:09:24.069Z,14
2024-03-02T14:11:23.126Z,14
2024-03-02T14:13:24.158Z,14
2024-03-02T14:15:25.125Z,14
2024-03-02T14:17:26.171Z,13
2024-03-02T14:19:27.056Z,13
2024-03-02T14:21:28.186Z,13
2024-03-02T14:23:28.987Z,13
2024-03-02T14:25:30.106Z,13
2024-03-02T14:27:58.731Z,12
2024-03-02T14:29:32.142Z,12
2024-03-02T14:31:33.076Z,12
2024-03-02T14:33:34.448Z,12
2024-03-02T14:35:35.068Z,12
2024-03-02T14:37:36.143Z,12
2024-03-02T14:39:37.220Z,12
2024-03-02T14:41:38.157Z,12
2024-03-02T14:43:39.068Z,12
2024-03-02T14:45:40.147Z,12
2024-03-02T14:47:41.076Z,12
2024-03-02T14:49:42.207Z,12
2024-03-02T14:51:43.259Z,12
2024-03-02T14:53:44.071Z,12
2024-03-02T14:55:45.177Z,12
2024-03-02T14:57:46.476Z,12
2024-03-02T14:59:47.059Z,12
2024-03-02T15:01:48.000Z,12
2024-03-02T15:03:49.116Z,12
2024-03-02T15:05:50.123Z,12
2024-03-02T15:07:51.584Z,12
2024-03-02T15:09:52.246Z,11
2024-03-02T15:11:53.088Z,11
2024-03-02T15:13:54.001Z,11
2024-03-02T15:15:55.213Z,11
2024-03-02T15:17:56.349Z,11
2024-03-02T15:19:57.061Z,11
2024-03-02T15:21:58.077Z,11
2024-03-02T15:23:59.053Z,11
2024-03-02T15:26:00.205Z,11
2024-03-02T15:28:01.182Z,11
2024-03-02T15:30:02.171Z,11
2024-03-02T15:32:03.103Z,11
2024-03-02T15:34:04.478Z,11
2024-03-02T15:36:05.018Z,11
2024-03-02T15:38:14.875Z,11
2024-03-02T15:40:07.432Z,11
2024-03-02T15:42:08.100Z,11
2024-03-02T15:44:09.187Z,11
2024-03-02T15:46:10.065Z,11
2024-03-02T15:48:11.094Z,11
2024-03-02T15:50:11.991Z,11
2024-03-02T15:52:13.091Z,11
2024-03-02T15:54:14.072Z,11
2024-03-02T15:56:15.031Z,10
2024-03-02T15:58:16.111Z,10
2024-03-02T16:00:17.047Z,10
2024-03-02T16:02:18.066Z,10
2024-03-02T16:04:19.164Z,10
2024-03-02T16:06:20.000Z,10
2024-03-02T16:08:21.077Z,10
2024-03-02T16:10:21.998Z,10
2024-03-02T16:12:23.017Z,10
2024-03-02T16:14:24.078Z,10
2024-03-02T16:16:25.005Z,10
2024-03-02T16:18:26.142Z,10
2024-03-02T16:20:27.173Z,10
2024-03-02T16:22:28.069Z,10
2024-03-02T16:24:29.327Z,10
2024-03-02T16:26:30.000Z,10
2024-03-02T16:28:31.037Z,10
2024-03-02T16:30:32.164Z,10
2024-03-02T16:32:33.026Z,9
2024-03-02T16:34:34.131Z,9
2024-03-02T16:36:35.324Z,9
2024-03-02T16:38:36.003Z,9
2024-03-02T16:40:37.045Z,9
2024-03-02T16:42:38.067Z,9
2024-03-02T16:44:39.334Z,9
2024-03-02T16:46:40.061Z,9
2024-03-02T16:48:41.128Z,9
2024-03-02T16:50:42.091Z,9
2024-03-02T16:52:43.042Z,9
2024-03-02T16:54:44.234Z,9
2024-03-02T16:56:45.093Z,9
2024-03-02T16:58:46.099Z,9
2024-03-02T17:00:47.130Z,9
2024-03-02T17:02:48.080Z,9
2024-03-02T17:04:49.173Z,9
2024-03-02T17:06:50.258Z,9
2024-03-02T17:08:51.107Z,9
2024-03-02T17:10:52.196Z,9
2024-03-02T17:12:53.146Z,9
2024-03-02T17:14:54.072Z,9
2024-03-02T17:16:55.226Z,9
2024-03-02T17:18:56.210Z,9
2024-03-02T17:20:57.073Z,9
2024-03-02T17:22:58.124Z,9
2024-03-02T17:24:59.219Z,9
2024-03-02T17:27:00.320Z,9
2024-03-02T17:29:01.088Z,9
2024-03-02T17:31:02.177Z,9
2024-03-02T17:33:03.300Z,9
2024-03-02T17:35:04.027Z,9
2024-03-02T17:37:05.245Z,9
2024-03-02T17:39:06.112Z,9
2024-03-02T17:41:07.294Z,9
2024-03-02T17:43:08.906Z,9
2024-03-02T17:45:10.139Z,9
2024-03-02T17:47:10.049Z,9
2024-03-02T17:49:11.202Z,8
2024-03-02T17:51:12.089Z,8
2024-03-02T17:53:13.106Z,8
2024-03-02T17:55:14.134Z,8
2024-03-02T17:57:15.412Z,8
2024-03-02T17:59:16.125Z,8
2024-03-02T18:01:17.283Z,8
2024-03-02T18:03:18.002Z,8
2024-03-02T18:05:19.188Z,8
2024-03-02T18:07:20.099Z,8
2024-03-02T18:09:21.082Z,8
2024-03-02T18:11:22.011Z,8
2024-03-02T18:13:23.362Z,7
2024-03-02T18:15:24.303Z,7
2024-03-02T18:17:25.051Z,7
2024-03-02T18:19:26.097Z,7
2024-03-02T18:21:27.418Z,7
2024-03-02T18:23:28.146Z,7
2024-03-02T18:25:29.473Z,7
2024-03-02T18:27:33.335Z,7
2024-03-02T18:29:31.343Z,7
2024-03-02T18:31:32.158Z,7
2024-03-02T18:33:33.287Z,7
2024-03-02T18:35:34.433Z,7
2024-03-02T18:37:35.064Z,7
2024-03-02T18:39:36.120Z,7
2024-03-02T18:41:38.458Z,7
2024-03-02T18:43:38.100Z,7
2024-03-02T18:45:39.268Z,7
2024-03-02T18:47:40.496Z,7
2024-03-02T18:49:41.278Z,7
2024-03-02T18:51:43.087Z,7
2024-03-02T18:53:43.068Z,7
2024-03-02T18:55:44.118Z,7
2024-03-02T18:57:45.422Z,7
2024-03-02T18:59:45.979Z,6
2024-03-02T19:01:47.126Z,6
2024-03-02T19:03:48.117Z,6
2024-03-02T19:05:49.188Z,6
2024-03-02T19:07:50.089Z,6
2024-03-02T19:09:51.204Z,6
2024-03-02T19:11:52.082Z,6
2024-03-02T19:13:53.077Z,6
2024-03-02T19:15:54.253Z,6
2024-03-02T19:17:55.512Z,6
2024-03-02T19:19:56.519Z,6
2024-03-02T19:22:08.260Z,6
2024-03-02T19:23:58.124Z,6
2024-03-02T19:25:59.000Z,6
2024-03-02T19:27:59.980Z,6
2024-03-02T19:30:01.118Z,6
2024-03-02T19:32:11.923Z,6
2024-03-02T19:34:03.160Z,6
2024-03-02T19:36:04.899Z,6
2024-03-02T19:38:05.058Z,6
2024-03-02T19:40:07.650Z,6
2024-03-02T19:42:07.191Z,6
2024-03-02T19:44:08.002Z,6
2024-03-02T19:46:09.073Z,6
2024-03-02T19:48:09.902Z,6
2024-03-02T19:50:11.064Z,6
2024-03-02T19:52:12.448Z,6
2024-03-02T19:54:13.287Z,6
2024-03-02T19:56:13.977Z,6
2024-03-02T19:58:15.495Z,6
2024-03-02T20:00:17.009Z,6
2024-03-02T20:02:18.873Z,6
2024-03-02T20:04:19.129Z,6
2024-03-02T20:06:19.482Z,6
2024-03-02T20:08:20.403Z,6
2024-03-02T20:10:21.096Z,6
2024-03-02T20:12:22.163Z,6
2024-03-02T20:14:24.073Z,6
2024-03-02T20:16:24.275Z,6
2024-03-02T20:18:25.980Z,6
2024-03-02T20:20:26.101Z,6
2024-03-02T20:22:27.012Z,6
2024-03-02T20:24:28.030Z,6
2024-03-02T20:26:29.129Z,6
2024-03-02T20:28:30.023Z,6
2024-03-02T20:30:31.121Z,6
2024-03-02T20:32:32.035Z,6
2024-03-02T20:34:32.947Z,6
2024-03-02T20:36:34.085Z,6
2024-03-02T20:38:34.936Z,6
2024-03-02T20:40:37.043Z,6
2024-03-02T20:42:37.201Z,6
2024-03-02T20:44:38.050Z,6
2024-03-02T20:46:39.030Z,6
2024-03-02T20:48:40.097Z,6
2024-03-02T20:50:41.093Z,6
2024-03-02T20:52:42.022Z,6
2024-03-02T20:54:43.107Z,6
2024-03-02T20:56:43.993Z,6
2024-03-02T20:58:45.027Z,6
2024-03-02T21:00:46.287Z,6
2024-03-02T21:02:48.654Z,6
2024-03-02T21:04:48.182Z,6
2024-03-02T21:06:49.132Z,6
2024-03-02T21:08:50.011Z,5
2024-03-02T21:10:51.188Z,5
2024-03-02T21:12:52.082Z,5
2024-03-02T21:14:53.057Z,5
2024-03-02T21:16:54.077Z,5
2024-03-02T21:18:55.211Z,5
2024-03-02T21:20:56.340Z,5
2024-03-02T21:22:57.113Z,5
2024-03-02T21:24:58.230Z,5
2024-03-02T21:26:59.064Z,5
2024-03-02T21:29:00.078Z,6
2024-03-02T21:31:00.968Z,6
2024-03-02T21:33:02.078Z,6
2024-03-02T21:35:03.121Z,6
2024-03-02T21:37:04.286Z,6
2024-03-02T21:39:06.352Z,6
2024-03-02T21:41:06.105Z,6
2024-03-02T21:43:07.222Z,6
2024-03-02T21:45:08.078Z,6
2024-03-02T21:47:09.066Z,6
2024-03-02T21:49:10.171Z,6
2024-03-02T21:51:10.994Z,7
2024-03-02T21:53:11.983Z,7
2024-03-02T21:55:13.213Z,7
2024-03-02T21:57:14.024Z,7
2024-03-02T21:59:15.039Z,7
2024-03-02T22:01:16.189Z,7
2024-03-02T22:03:17.326Z,7
2024-03-02T22:05:18.043Z,7
2024-03-02T22:07:19.121Z,7
2024-03-02T22:09:20.168Z,7
2024-03-02T22:11:20.995Z,7
2024-03-02T22:13:22.353Z,7
2024-03-02T22:15:22.948Z,7
2024-03-02T22:17:24.267Z,7
2024-03-02T22:19:25.024Z,7
2024-03-02T22:21:26.393Z,7
2024-03-02T22:23:27.034Z,7
2024-03-02T22:25:28.070Z,7
2024-03-02T22:27:29.346Z,7
2024-03-02T22:29:30.998Z,7
2024-03-02T22:31:31.062Z,7
2024-03-02T22:33:32.078Z,7
2024-03-02T22:35:33.112Z,7
2024-03-02T22:37:34.101Z,7
2024-03-02T22:39:35.057Z,7
2024-03-02T22:41:35.982Z,7
2024-03-02T22:43:37.057Z,7
2024-03-02T22:45:38.120Z,7
2024-03-02T22:47:38.998Z,7
2024-03-02T22:49:40.044Z,7
2024-03-02T22:51:40.991Z,7
2024-03-02T22:53:42.019Z,7
2024-03-02T22:55:42.954Z,7
2024-03-02T22:57:44.175Z,7
2024-03-02T22:59:44.986Z,7
2024-03-02T23:01:46.355Z,7
2024-03-02T23:03:47.044Z,7
2024-03-02T23:05:48.355Z,7
2024-03-02T23:07:49.011Z,7
2024-03-02T23:09:50.726Z,7
2024-03-02T23:11:51.091Z,7
2024-03-02T23:13:52.089Z,7
2024-03-02T23:15:53.102Z,7
2024-03-02T23:17:54.009Z,7
2024-03-02T23:19:54.979Z,8
2024-03-02T23:21:57.229Z,8
2024-03-02T23:23:56.979Z,8
2024-03-02T23:25:57.967Z,8
2024-03-02T23:27:59.183Z,8
2024-03-02T23:29:59.940Z,8
2024-03-02T23:32:01.076Z,8
2024-03-02T23:34:02.410Z,8
2024-03-02T23:36:03.831Z,8
2024-03-02T23:38:03.966Z,8
2024-03-02T23:40:05.593Z,8
2024-03-02T23:42:06.495Z,8
2024-03-02T23:44:07.509Z,8
2024-03-02T23:46:08.177Z,8
2024-03-02T23:48:09.032Z,7
2024-03-02T23:50:10.129Z,7
2024-03-02T23:52:11.076Z,7
2024-03-02T23:54:12.071Z,7
2024-03-02T23:56:12.952Z,7
2024-03-02T23:58:14.061Z,7
